createdAt,value
2023-01-27T00:01:32.769Z,100017.13
2023-01-27T00:04:01.035Z,100013.30
2023-01-27T00:06:29.037Z,100016.73
2023-01-27T00:08:56.927Z,100014.71
2023-01-27T00:11:43.219Z,100017.11
2023-01-27T00:14:11.213Z,100015.84
2023-01-27T00:16:39.047Z,100016.95
2023-01-27T00:19:06.935Z,100019.45
2023-01-27T00:21:53.572Z,100016.67
2023-01-27T00:24:37.026Z,100017.37
2023-01-27T00:27:09.082Z,100014.11
2023-01-27T00:29:40.756Z,100017.52
2023-01-27T00:32:29.084Z,100017.98
2023-01-27T00:34:57.032Z,100018.09
2023-01-27T00:37:25.028Z,100016.27
2023-01-27T00:39:52.995Z,100016.52
2023-01-27T00:42:20.963Z,100012.76
2023-01-27T00:45:09.822Z,100009.67
2023-01-27T00:47:37.726Z,100003.86
2023-01-27T00:50:06.496Z,100000.75
2023-01-27T00:52:34.312Z,100000.28
2023-01-27T00:55:02.987Z,99997.50
2023-01-27T00:57:31.047Z,99995.11
2023-01-27T00:59:59.938Z,99993.20
2023-01-27T01:02:28.064Z,99993.69
2023-01-27T01:04:56.575Z,99994.40
2023-01-27T01:07:25.244Z,99995.98
2023-01-27T01:09:53.115Z,99991.81
2023-01-27T01:12:22.916Z,99985.13
2023-01-27T01:14:51.379Z,99988.35
2023-01-27T01:17:19.257Z,99992.39
2023-01-27T01:19:47.356Z,99988.91
2023-01-27T01:22:15.280Z,99984.24
2023-01-27T01:24:43.360Z,99986.50
2023-01-27T01:27:11.483Z,99989.06
2023-01-27T01:29:39.401Z,99996.55
2023-01-27T01:32:10.001Z,99991.83
2023-01-27T01:34:38.019Z,99992.31
2023-01-27T01:37:05.886Z,99985.80
2023-01-27T01:39:33.882Z,99982.47
2023-01-27T01:42:01.792Z,99983.68
2023-01-27T01:44:32.055Z,99985.19
2023-01-27T01:47:01.112Z,99986.29
2023-01-27T01:49:39.118Z,99980.45
2023-01-27T01:52:11.235Z,99980.55
2023-01-27T01:54:47.115Z,99975.80
2023-01-27T01:57:26.957Z,99974.10
2023-01-27T02:00:07.119Z,99971.89
2023-01-27T02:02:43.214Z,99970.19
2023-01-27T02:05:18.339Z,99968.31
2023-01-27T02:08:02.952Z,99966.54
2023-01-27T02:10:33.517Z,99962.11
2023-01-27T02:13:01.593Z,99963.17
2023-01-27T02:15:33.496Z,99960.20
2023-01-27T02:18:02.704Z,99958.70
2023-01-27T02:20:50.157Z,99957.19
2023-01-27T02:23:55.527Z,99954.40
2023-01-27T02:26:36.507Z,99949.80
2023-01-27T02:29:08.600Z,99948.80
2023-01-27T02:31:37.577Z,99945.98
2023-01-27T02:34:27.556Z,99946.04
2023-01-27T02:36:59.535Z,99938.79
2023-01-27T02:39:32.548Z,99936.91
2023-01-27T02:42:02.842Z,99941.04
2023-01-27T02:44:31.560Z,99943.05
2023-01-27T02:46:59.555Z,99944.35
2023-01-27T02:49:27.777Z,99942.10
2023-01-27T02:51:55.675Z,99937.55
2023-01-27T02:54:26.449Z,99939.52
2023-01-27T02:56:54.641Z,99942.06
2023-01-27T02:59:23.752Z,99938.45
2023-01-27T03:01:51.776Z,99940.54
2023-01-27T03:04:20.655Z,99931.63
2023-01-27T03:06:48.613Z,99927.71
2023-01-27T03:09:16.436Z,99931.68
2023-01-27T03:12:02.713Z,99933.23
2023-01-27T03:14:49.290Z,99932.48
2023-01-27T03:17:36.116Z,99928.17
2023-01-27T03:20:04.446Z,99925.14
2023-01-27T03:22:33.321Z,99923.14
2023-01-27T03:25:01.492Z,99921.89
2023-01-27T03:27:29.541Z,99914.43
2023-01-27T03:30:36.025Z,99912.84
2023-01-27T03:33:13.940Z,99914.26
2023-01-27T03:36:20.739Z,99911.63
2023-01-27T03:39:09.900Z,99912.30
2023-01-27T03:41:56.544Z,99905.48
2023-01-27T03:44:46.092Z,99904.30
2023-01-27T03:47:14.014Z,99902.95
2023-01-27T03:49:41.851Z,99904.17
2023-01-27T03:52:09.805Z,99902.13
2023-01-27T03:54:37.662Z,99899.42
2023-01-27T03:57:06.575Z,99896.49
2023-01-27T03:59:36.040Z,99894.30
2023-01-27T04:02:23.003Z,99894.25
2023-01-27T04:05:09.660Z,99901.70
2023-01-27T04:07:38.056Z,99902.41
2023-01-27T04:10:06.860Z,99897.66
2023-01-27T04:12:34.822Z,99895.23
2023-01-27T04:15:03.318Z,99896.10
2023-01-27T04:17:39.153Z,99893.19
2023-01-27T04:20:07.721Z,99890.63
2023-01-27T04:22:35.969Z,99895.66
2023-01-27T04:25:04.197Z,99895.33
2023-01-27T04:27:32.104Z,99893.29
2023-01-27T04:30:00.600Z,99890.00
2023-01-27T04:32:28.618Z,99886.30
2023-01-27T04:34:56.816Z,99884.74
2023-01-27T04:37:24.632Z,99882.82
2023-01-27T04:39:52.462Z,99879.84
2023-01-27T04:42:20.441Z,99877.61
2023-01-27T04:44:48.335Z,99876.97
2023-01-27T04:47:16.209Z,99869.94
2023-01-27T04:49:44.032Z,99871.77
2023-01-27T04:52:12.146Z,99873.64
2023-01-27T04:54:40.081Z,99874.84
2023-01-27T04:57:08.259Z,99875.33
2023-01-27T04:59:36.257Z,99875.55
2023-01-27T05:02:04.744Z,99871.73
2023-01-27T05:04:32.879Z,99872.92
2023-01-27T05:07:01.093Z,99869.69
2023-01-27T05:09:28.926Z,99873.59
2023-01-27T05:11:56.843Z,99874.98
2023-01-27T05:14:26.150Z,99876.02
2023-01-27T05:16:56.191Z,99874.70
2023-01-27T05:19:24.186Z,99874.34
2023-01-27T05:21:52.111Z,99874.70
2023-01-27T05:24:20.032Z,99874.59
2023-01-27T05:26:48.129Z,99873.89
2023-01-27T05:29:16.059Z,99875.30
2023-01-27T05:31:44.063Z,99876.27
2023-01-27T05:34:12.075Z,99871.74
2023-01-27T05:36:39.956Z,99868.86
2023-01-27T05:39:11.363Z,99870.27
2023-01-27T05:41:39.554Z,99871.73
2023-01-27T05:44:10.421Z,99871.25
2023-01-27T05:46:40.659Z,99872.04
2023-01-27T05:49:09.684Z,99873.39
2023-01-27T05:51:39.848Z,99871.09
2023-01-27T05:54:08.474Z,99867.25
2023-01-27T05:56:36.483Z,99866.48
2023-01-27T05:59:04.345Z,99867.34
2023-01-27T06:01:34.258Z,99865.02
2023-01-27T06:04:02.219Z,99862.61
2023-01-27T06:06:32.603Z,99862.81
2023-01-27T06:09:01.137Z,99864.68
2023-01-27T06:11:29.175Z,99867.32
2023-01-27T06:13:57.168Z,99866.09
2023-01-27T06:16:26.023Z,99864.95
2023-01-27T06:18:53.932Z,99862.52
2023-01-27T06:21:21.891Z,99861.50
2023-01-27T06:23:54.313Z,99861.38
2023-01-27T06:26:27.623Z,99862.98
2023-01-27T06:28:57.801Z,99855.91
2023-01-27T06:31:27.690Z,99855.73
2023-01-27T06:33:55.721Z,99857.84
2023-01-27T06:36:23.768Z,99858.90
2023-01-27T06:39:04.831Z,99861.55
2023-01-27T06:41:38.742Z,99861.61
2023-01-27T06:44:06.631Z,99858.27
2023-01-27T06:46:34.641Z,99860.45
2023-01-27T06:49:02.630Z,99859.64
2023-01-27T06:51:30.572Z,99854.93
2023-01-27T06:53:58.562Z,99856.78
2023-01-27T06:56:26.536Z,99855.09
2023-01-27T06:58:54.357Z,99851.95
2023-01-27T07:01:22.445Z,99852.84
2023-01-27T07:03:50.284Z,99860.16
2023-01-27T07:06:19.139Z,99862.36
2023-01-27T07:08:47.618Z,99858.39
2023-01-27T07:11:15.525Z,99853.48
2023-01-27T07:13:43.797Z,99851.08
2023-01-27T07:16:11.832Z,99851.72
2023-01-27T07:18:39.849Z,99848.67
2023-01-27T07:21:08.289Z,99846.21
2023-01-27T07:23:36.214Z,99852.65
2023-01-27T07:26:09.855Z,99855.86
2023-01-27T07:28:44.000Z,99852.32
2023-01-27T07:31:12.121Z,99848.37
2023-01-27T07:33:40.229Z,99846.88
2023-01-27T07:36:08.413Z,99846.59
2023-01-27T07:38:36.374Z,99848.54
2023-01-27T07:41:06.100Z,99851.35
2023-01-27T07:43:34.807Z,99845.02
2023-01-27T07:46:08.897Z,99842.91
2023-01-27T07:48:36.873Z,99840.95
2023-01-27T07:51:04.775Z,99841.80
2023-01-27T07:53:35.800Z,99844.40
2023-01-27T07:56:03.688Z,99842.77
2023-01-27T07:58:31.660Z,99838.66
2023-01-27T08:00:59.770Z,99843.41
2023-01-27T08:03:28.042Z,99842.75
2023-01-27T08:05:55.974Z,99840.59
2023-01-27T08:08:24.062Z,99837.20
2023-01-27T08:10:54.489Z,99840.67
2023-01-27T08:13:22.768Z,99841.38
2023-01-27T08:15:58.634Z,99837.73
2023-01-27T08:18:28.666Z,99833.77
2023-01-27T08:21:00.447Z,99835.02
2023-01-27T08:23:28.689Z,99835.02
2023-01-27T08:25:59.569Z,99832.92
2023-01-27T08:28:30.339Z,99834.09
2023-01-27T08:31:13.666Z,99833.27
2023-01-27T08:33:43.235Z,99833.39
2023-01-27T08:36:14.301Z,99838.38
2023-01-27T08:38:42.895Z,99841.81
2023-01-27T08:41:14.057Z,99837.71
2023-01-27T08:43:42.333Z,99837.55
2023-01-27T08:46:10.963Z,99838.94
2023-01-27T08:48:39.152Z,99841.90
2023-01-27T08:51:08.765Z,99843.04
2023-01-27T08:53:37.182Z,99844.89
2023-01-27T08:56:10.640Z,99846.67
2023-01-27T08:58:38.807Z,99843.61
2023-01-27T09:01:07.737Z,99841.40
2023-01-27T09:03:36.390Z,99839.46
2023-01-27T09:06:05.365Z,99838.52
2023-01-27T09:08:33.346Z,99836.64
2023-01-27T09:11:17.437Z,99836.31
2023-01-27T09:13:45.483Z,99837.67
2023-01-27T09:16:13.350Z,99833.94
2023-01-27T09:18:42.535Z,99830.89
2023-01-27T09:21:12.817Z,99826.27
2023-01-27T09:23:40.798Z,99821.02
2023-01-27T09:26:08.983Z,99819.02
2023-01-27T09:28:37.044Z,99817.54
2023-01-27T09:31:05.392Z,99814.52
2023-01-27T09:33:34.073Z,99815.02
2023-01-27T09:36:11.236Z,99809.80
2023-01-27T09:38:46.302Z,99806.37
2023-01-27T09:41:34.412Z,99797.27
2023-01-27T09:44:24.044Z,99795.55
2023-01-27T09:47:04.621Z,99800.00
2023-01-27T09:49:44.804Z,99803.23
2023-01-27T09:52:45.464Z,99803.23
2023-01-27T09:55:18.084Z,99801.83
2023-01-27T09:57:49.437Z,99796.27
2023-01-27T10:00:41.925Z,99789.77
2023-01-27T10:03:24.002Z,99787.12
2023-01-27T10:06:43.177Z,99786.23
2023-01-27T10:09:58.255Z,99782.82
2023-01-27T10:12:35.163Z,99782.63
2023-01-27T10:15:03.134Z,99781.89
2023-01-27T10:17:42.946Z,99775.60
2023-01-27T10:20:21.495Z,99772.23
2023-01-27T10:23:10.365Z,99768.11
2023-01-27T10:25:52.659Z,99768.36
2023-01-27T10:28:25.822Z,99766.84
2023-01-27T10:31:12.789Z,99767.80
2023-01-27T10:33:52.274Z,99765.48
2023-01-27T10:36:30.673Z,99767.01
2023-01-27T10:39:01.556Z,99761.67
2023-01-27T10:41:55.313Z,99760.30
2023-01-27T10:44:42.718Z,99759.15
2023-01-27T10:47:28.144Z,99764.20
2023-01-27T10:50:06.346Z,99767.60
2023-01-27T10:53:04.124Z,99768.23
2023-01-27T10:55:59.409Z,99765.07
2023-01-27T10:58:48.702Z,99758.11
2023-01-27T11:01:25.616Z,99757.24
2023-01-27T11:04:22.897Z,99751.94
2023-01-27T11:06:52.799Z,99749.27
2023-01-27T11:09:37.427Z,99743.54
2023-01-27T11:12:12.720Z,99736.10
2023-01-27T11:14:52.967Z,99731.80
2023-01-27T11:17:23.898Z,99730.96
2023-01-27T11:20:20.812Z,99727.31
2023-01-27T11:22:48.745Z,99730.34
2023-01-27T11:25:23.819Z,99730.89
2023-01-27T11:28:17.639Z,99735.98
2023-01-27T11:31:01.076Z,99733.95
2023-01-27T11:33:48.554Z,99730.79
2023-01-27T11:36:16.591Z,99734.02
2023-01-27T11:38:44.722Z,99732.81
2023-01-27T11:41:12.951Z,99728.58
2023-01-27T11:43:41.257Z,99730.86
2023-01-27T11:46:16.073Z,99729.42
2023-01-27T11:48:50.527Z,99731.11
2023-01-27T11:51:29.110Z,99729.27
2023-01-27T11:54:34.743Z,99725.48
2023-01-27T11:57:02.647Z,99719.80
2023-01-27T11:59:39.973Z,99713.15
2023-01-27T12:02:08.057Z,99706.00
2023-01-27T12:04:38.913Z,99703.89
2023-01-27T12:07:16.318Z,99705.92
2023-01-27T12:09:44.320Z,99710.04
2023-01-27T12:12:22.847Z,99712.63
2023-01-27T12:15:00.988Z,99712.52
2023-01-27T12:17:41.067Z,99710.35
2023-01-27T12:20:38.521Z,99711.79
2023-01-27T12:23:20.577Z,99706.11
2023-01-27T12:25:55.574Z,99703.53
2023-01-27T12:28:26.369Z,99706.75
2023-01-27T12:31:02.567Z,99708.09
2023-01-27T12:33:33.241Z,99711.81
2023-01-27T12:36:24.989Z,99709.57
2023-01-27T12:39:01.102Z,99707.23
2023-01-27T12:41:32.657Z,99701.79
2023-01-27T12:44:18.642Z,99699.42
2023-01-27T12:47:00.837Z,99703.89
2023-01-27T12:49:38.872Z,99704.43
2023-01-27T12:52:09.605Z,99705.25
2023-01-27T12:54:37.534Z,99707.05
2023-01-27T12:57:12.287Z,99708.68
2023-01-27T12:59:50.543Z,99703.19
2023-01-27T13:02:23.088Z,99694.52
2023-01-27T13:04:58.395Z,99693.97
2023-01-27T13:07:39.146Z,99691.42
2023-01-27T13:10:20.143Z,99693.50
2023-01-27T13:12:51.134Z,99694.05
2023-01-27T13:15:21.740Z,99696.59
2023-01-27T13:17:54.870Z,99695.85
2023-01-27T13:20:22.759Z,99696.31
2023-01-27T13:23:15.904Z,99699.56
2023-01-27T13:26:09.311Z,99700.42
2023-01-27T13:28:52.275Z,99702.60
2023-01-27T13:31:58.112Z,99703.33
2023-01-27T13:34:49.558Z,99701.13
2023-01-27T13:37:29.125Z,99698.85
2023-01-27T13:40:02.440Z,99704.62
2023-01-27T13:42:43.514Z,99706.17
2023-01-27T13:45:34.001Z,99707.46
2023-01-27T13:48:08.719Z,99710.54
2023-01-27T13:50:44.960Z,99714.90
2023-01-27T13:53:16.279Z,99723.94
2023-01-27T13:55:53.336Z,99727.88
2023-01-27T13:58:44.421Z,99731.73
2023-01-27T14:01:51.180Z,99732.57
2023-01-27T14:04:36.281Z,99733.01
2023-01-27T14:07:42.581Z,99735.36
2023-01-27T14:11:02.617Z,99736.55
2023-01-27T14:13:52.179Z,99740.71
2023-01-27T14:16:37.204Z,99743.08
2023-01-27T14:19:20.338Z,99742.13
2023-01-27T14:22:36.473Z,99746.05
2023-01-27T14:25:16.685Z,99745.48
2023-01-27T14:30:51.542Z,99752.35
2023-01-27T14:33:54.516Z,99748.86
2023-01-27T14:36:34.470Z,99748.70
2023-01-27T14:39:31.257Z,99747.63
2023-01-27T14:42:08.647Z,99750.36
2023-01-27T14:45:15.950Z,99750.71
2023-01-27T14:48:02.889Z,99748.67
2023-01-27T14:50:50.944Z,99754.23
2023-01-27T14:54:00.755Z,99758.91
2023-01-27T14:56:44.070Z,99758.86
2023-01-27T14:59:37.105Z,99766.14
2023-01-27T15:02:42.579Z,99769.79
2023-01-27T15:05:25.396Z,99777.04
2023-01-27T15:08:26.375Z,99779.39
2023-01-27T15:11:12.587Z,99786.51
2023-01-27T15:14:09.261Z,99793.50
2023-01-27T15:17:14.617Z,99794.98
2023-01-27T15:20:07.387Z,99797.84
2023-01-27T15:23:03.274Z,99793.52
2023-01-27T15:25:43.958Z,99794.05
2023-01-27T15:28:15.104Z,99792.67
2023-01-27T15:31:09.674Z,99799.08
2023-01-27T15:33:43.966Z,99801.39
2023-01-27T15:36:40.383Z,99806.42
2023-01-27T15:39:11.568Z,99809.16
2023-01-27T15:42:10.053Z,99807.02
2023-01-27T15:44:58.773Z,99803.77
2023-01-27T15:47:32.624Z,99808.55
2023-01-27T15:50:12.684Z,99806.33
2023-01-27T15:52:48.990Z,99810.98
2023-01-27T15:55:30.524Z,99812.44
2023-01-27T15:58:06.466Z,99808.80
2023-01-27T16:00:38.005Z,99812.53
2023-01-27T16:03:19.755Z,99813.91
2023-01-27T16:05:57.502Z,99819.27
2023-01-27T16:08:31.946Z,99822.30
2023-01-27T16:11:26.606Z,99822.03
2023-01-27T16:14:38.315Z,99820.73
2023-01-27T16:17:19.967Z,99819.67
2023-01-27T16:20:14.651Z,99821.30
2023-01-27T16:22:44.461Z,99823.42
2023-01-27T16:25:29.246Z,99823.14
2023-01-27T16:28:04.457Z,99822.83
2023-01-27T16:30:39.990Z,99822.80
2023-01-27T16:33:17.198Z,99828.83
2023-01-27T16:36:00.017Z,99829.23
2023-01-27T16:38:31.431Z,99830.98
2023-01-27T16:41:03.788Z,99827.73
2023-01-27T16:44:15.752Z,99828.44
2023-01-27T16:46:49.980Z,99828.58
2023-01-27T16:49:36.199Z,99829.39
2023-01-27T16:52:05.950Z,99829.66
2023-01-27T16:54:44.324Z,99826.64
2023-01-27T16:57:27.575Z,99829.77
2023-01-27T16:59:59.927Z,99830.51
2023-01-27T17:02:30.234Z,99828.41
2023-01-27T17:05:03.028Z,99827.71
2023-01-27T17:07:32.084Z,99833.02
2023-01-27T17:10:14.999Z,99832.60
2023-01-27T17:12:50.271Z,99833.51
2023-01-27T17:15:25.237Z,99833.31
2023-01-27T17:17:53.866Z,99831.27
2023-01-27T17:20:34.855Z,99833.11
2023-01-27T17:23:04.005Z,99834.43
2023-01-27T17:25:37.889Z,99835.52
2023-01-27T17:28:12.385Z,99831.84
2023-01-27T17:30:42.351Z,99833.55
2023-01-27T17:33:20.825Z,99833.38
2023-01-27T17:35:58.524Z,99837.25
2023-01-27T17:38:47.316Z,99838.89
2023-01-27T17:41:45.518Z,99839.26
2023-01-27T17:44:14.643Z,99840.26
2023-01-27T17:46:42.610Z,99841.48
2023-01-27T17:49:17.588Z,99844.27
2023-01-27T17:51:49.409Z,99845.37
2023-01-27T17:54:31.274Z,99849.59
2023-01-27T17:57:02.259Z,99851.77
2023-01-27T17:59:30.500Z,99853.42
2023-01-27T18:02:05.074Z,99854.42
2023-01-27T18:04:39.703Z,99851.59
2023-01-27T18:07:10.375Z,99852.19
2023-01-27T18:09:45.240Z,99856.84
2023-01-27T18:12:30.955Z,99856.84
2023-01-27T18:15:19.365Z,99856.83
2023-01-27T18:17:58.965Z,99862.38
2023-01-27T18:20:29.247Z,99868.35
2023-01-27T18:22:57.840Z,99870.25
2023-01-27T18:25:25.748Z,99873.14
2023-01-27T18:27:55.791Z,99875.23
2023-01-27T18:30:26.006Z,99878.60
2023-01-27T18:33:06.179Z,99878.70
2023-01-27T18:35:35.091Z,99880.11
2023-01-27T18:38:19.651Z,99878.23
2023-01-27T18:40:48.187Z,99874.42
2023-01-27T18:43:16.143Z,99877.38
2023-01-27T18:45:47.935Z,99877.65
2023-01-27T18:48:17.592Z,99880.57
2023-01-27T18:50:50.440Z,99880.78
2023-01-27T18:53:20.909Z,99881.86
2023-01-27T18:55:49.123Z,99885.65
2023-01-27T18:58:18.459Z,99887.55
2023-01-27T19:00:53.666Z,99889.98
2023-01-27T19:03:25.160Z,99890.04
2023-01-27T19:05:54.322Z,99889.10
2023-01-27T19:08:25.081Z,99892.39
2023-01-27T19:10:53.137Z,99895.25
2023-01-27T19:13:21.257Z,99899.68
2023-01-27T19:15:56.720Z,99899.75
2023-01-27T19:18:37.536Z,99902.89
2023-01-27T19:21:06.196Z,99906.48
2023-01-27T19:23:34.428Z,99901.46
2023-01-27T19:26:03.844Z,99896.75
2023-01-27T19:28:38.721Z,99894.02
2023-01-27T19:31:07.786Z,99897.04
2023-01-27T19:33:37.461Z,99899.61
2023-01-27T19:36:08.998Z,99902.05
2023-01-27T19:38:36.900Z,99902.77
2023-01-27T19:41:05.010Z,99901.00
2023-01-27T19:43:33.086Z,99904.33
2023-01-27T19:46:01.166Z,99903.98
2023-01-27T19:48:29.344Z,99906.16
2023-01-27T19:50:57.288Z,99911.12
2023-01-27T19:53:25.373Z,99914.27
2023-01-27T19:55:54.383Z,99911.61
2023-01-27T19:58:25.189Z,99912.55
2023-01-27T20:00:54.979Z,99912.92
2023-01-27T20:03:23.524Z,99916.23
2023-01-27T20:05:51.901Z,99914.34
2023-01-27T20:08:20.980Z,99912.23
2023-01-27T20:10:49.277Z,99914.29
2023-01-27T20:13:19.685Z,99916.02
2023-01-27T20:15:47.857Z,99921.68
2023-01-27T20:18:17.459Z,99921.86
2023-01-27T20:20:46.847Z,99924.32
2023-01-27T20:23:15.710Z,99921.47
2023-01-27T20:25:50.584Z,99920.20
2023-01-27T20:28:52.200Z,99921.52
2023-01-27T20:31:46.357Z,99921.45
2023-01-27T20:34:22.111Z,99922.56
2023-01-27T20:36:50.340Z,99925.56
2023-01-27T20:39:19.050Z,99925.80
2023-01-27T20:41:50.387Z,99923.06
2023-01-27T20:44:21.143Z,99924.78
2023-01-27T20:46:49.529Z,99925.09
2023-01-27T20:49:20.696Z,99925.40
2023-01-27T20:51:51.531Z,99929.59
2023-01-27T20:54:19.585Z,99929.11
2023-01-27T20:56:48.670Z,99926.85
2023-01-27T20:59:18.373Z,99930.89
2023-01-27T21:01:46.382Z,99929.88
2023-01-27T21:04:14.608Z,99926.45
2023-01-27T21:06:42.660Z,99926.48
2023-01-27T21:09:10.688Z,99923.77
2023-01-27T21:11:38.633Z,99924.29
2023-01-27T21:14:06.580Z,99920.74
2023-01-27T21:16:35.300Z,99922.23
2023-01-27T21:19:03.686Z,99922.14
2023-01-27T21:21:31.801Z,99926.05
2023-01-27T21:24:02.858Z,99925.59
2023-01-27T21:26:33.085Z,99929.91
2023-01-27T21:29:01.097Z,99931.27
2023-01-27T21:31:30.469Z,99934.20
2023-01-27T21:34:01.405Z,99931.15
2023-01-27T21:36:29.576Z,99932.35
2023-01-27T21:38:57.924Z,99933.02
2023-01-27T21:41:45.239Z,99931.36
2023-01-27T21:44:41.642Z,99933.09
2023-01-27T21:47:12.778Z,99934.52
2023-01-27T21:50:01.113Z,99931.67
2023-01-27T21:52:32.795Z,99930.30
2023-01-27T21:55:02.799Z,99928.20
2023-01-27T21:57:32.033Z,99928.00
2023-01-27T22:00:00.039Z,99928.98
2023-01-27T22:02:29.601Z,99929.00
2023-01-27T22:04:57.782Z,99927.77
2023-01-27T22:07:27.117Z,99928.80
2023-01-27T22:09:55.131Z,99925.63
2023-01-27T22:12:23.613Z,99927.72
2023-01-27T22:14:51.579Z,99929.52
2023-01-27T22:17:20.135Z,99928.67
2023-01-27T22:19:48.233Z,99929.57
2023-01-27T22:22:16.386Z,99930.84
2023-01-27T22:24:44.518Z,99932.40
2023-01-27T22:27:12.940Z,99935.79
2023-01-27T22:29:40.907Z,99937.15
2023-01-27T22:32:09.034Z,99932.84
2023-01-27T22:34:37.045Z,99930.45
2023-01-27T22:37:05.186Z,99932.30
2023-01-27T22:39:34.110Z,99929.36
2023-01-27T22:42:02.996Z,99932.00
2023-01-27T22:44:32.556Z,99929.63
2023-01-27T22:47:01.743Z,99928.05
2023-01-27T22:49:29.717Z,99926.23
2023-01-27T22:51:57.929Z,99930.56
2023-01-27T22:54:29.405Z,99928.36
2023-01-27T22:57:01.073Z,99931.90
2023-01-27T22:59:29.173Z,99930.02
2023-01-27T23:01:57.589Z,99927.72
2023-01-27T23:04:26.646Z,99926.14
2023-01-27T23:06:55.487Z,99923.83
2023-01-27T23:09:23.480Z,99924.88
2023-01-27T23:11:52.826Z,99925.56
2023-01-27T23:14:21.298Z,99929.06
2023-01-27T23:16:53.095Z,99927.70
2023-01-27T23:19:22.011Z,99929.73
2023-01-27T23:21:51.256Z,99926.83
2023-01-27T23:24:20.987Z,99927.39
2023-01-27T23:26:49.063Z,99927.20
2023-01-27T23:29:24.583Z,99926.71
2023-01-27T23:31:54.254Z,99925.86
2023-01-27T23:34:22.207Z,99923.25
2023-01-27T23:36:50.458Z,99927.52
2023-01-27T23:39:18.651Z,99927.65
2023-01-27T23:41:46.526Z,99926.65
2023-01-27T23:44:14.795Z,99929.98
2023-01-27T23:46:43.478Z,99927.67
2023-01-27T23:49:15.399Z,99928.65
2023-01-27T23:51:45.425Z,99932.60
2023-01-27T23:54:13.668Z,99933.44
2023-01-27T23:56:41.526Z,99936.40
2023-01-27T23:59:12.271Z,99937.31
